Watertown, SD

1:04 PM CDT on July 30, 2014 (GMT -0500)
Turkey Ridge (KSDWATER6) Elev 1795 ft | 44.91 °N, 97.08 °W | Change Station

Current weather conditions updated 4 minutes ago

Mostly Cloudy
Mostly Cloudy
74.0 °F
Feels Like 77 °F
N
3.0
Wind Variable Wind from North
Gusts 6.0 mph

Today is forecast to be nearly the same temperature as yesterday.

Today
High -- | Low -- °F
--% Chance of Precip.
Yesterday
High -- | Low -- °F
Precip. -- in
6:11 AM 8:57 PM
Waxing Crescent, 13% visible
Pressure 30.14 in
Visibility 10.0 miles
Clouds Mostly Cloudy 5000 ft
Heat Index 77 °F
Dew Point 54 °F
Humidity 50%
Rainfall 0.00 in
Snow Depth Not available.
UV 6 out of 12
Pollen 6.60 out of 12
Air Quality Not available.
Flu Activity Not available.
METAR KATY 301753Z AUTO 36007KT 10SM BKN050 23/12 A3015 RMK AO2 SLP205 T02330117 10239 20100 58007

More Conditions Fewer Conditions

Pressure 30.14 in
Visibility 10.0 miles
Clouds Mostly Cloudy 5000 ft
Heat Index 77 °F
Dew Point 54 °F
Humidity 50%
Rainfall 0.00 in
Snow Depth Not available.
UV 6 out of 12
Pollen 6.60 out of 12
Air Quality Not available.
Flu Activity Not available.
METAR KATY 301753Z AUTO 36007KT 10SM BKN050 23/12 A3015 RMK AO2 SLP205 T02330117 10239 20100 58007

More Conditions Fewer Conditions

10-Day Weather Forecast

Almanac

Astronomy

Jul. 30, 2014 Rise Set
Actual Time 6:11 AM CDT 8:57 PM CDT
Civil Twilight 5:37 AM CDT 9:30 PM CDT
Nautical Twilight 4:55 AM CDT 10:13 PM CDT
Astronomical Twilight 4:05 AM CDT 11:03 PM CDT
Moon 9:56 AM CDT 10:27 PM CDT
Length of Visible Light 15h 52m
Length of Day
14h 45m
Tomorrow will be 2m 21s shorter.
Waxing Crescent, 13% of the Moon is Illuminated
Today
Waxing Crescent
Aug 3
First Quarter
Aug 10
Full
Aug 17
Last Quarter
Aug 25
New

Today's Extremes

State Highs State Lows

Community

WunderPhotos

Upload Photos

1,739,147 photos uploaded!

Nearby

Snow Depth

Station Depth Elevation
Blind Park 0 in 6890 ft

Earthquake Activity

City Distance Mag. Time & Date
No recent earthquake activity has been reported nearby.
Minimum magnitude displayed is 2.5.

Coastal Water Temperatures

Place Temperature
No Stations Reporting

Nearby Weather Stations

Station Location Temp. Heat Index Dew Point Humidity Wind Precip. Elev Updated Type
Turkey Ridge, Watertown, SD 74.0 °F 77 °F 54 °F 50% North  at  3.0 mph 0.00 in / hr 1795 ft 12:59 PM CDT Normal
derby downs, Watertown, SD 73.4 °F 77 °F 58 °F 58% WSW  at  0.0 mph - / hr 1810 ft 12:54 PM CDT Normal
South Lake Pelican, Watertown, SD 75.9 °F 78 °F 57 °F 52% NNW  at  2.0 mph 0.00 in / hr 1726 ft 1:04 PM CDT Rapid Fire
Kent, Florence, SD 74.2 °F 77 °F 57 °F 55% North  at  0.0 mph 0.00 in / hr 1801 ft 1:00 PM CDT Normal
Bradley, SD 76.8 °F 78 °F 54 °F 45% West  at  4.5 mph 0.00 in / hr 1827 ft 3:00 PM UYT Normal

Show More Stations Show Fewer Stations